Time;durP1;ratioP1;P1;durP2;ratioP2;P2;SDS_P1;SDS_P2;PMS_P1;PMS_P2;Temp;Humidity;BMP_temperature;BMP_pressure;BME280_temperature;BME280_humidity;BME280_pressure;Samples;Min_cycle;Max_cycle;Signal;HPM_P1;HPM_P2
2021/08/27 00:00:09;;;;;;;;;8.50;4.75;;;;;17.43;59.16;101721.59;4924045;28;45421;-84
2021/08/27 00:02:35;;;;;;;;;4.00;4.00;;;;;17.40;59.11;101719.94;4923618;28;45568;-83
2021/08/27 00:05:00;;;;;;;;;6.75;5.25;;;;;17.44;58.88;101717.97;4923524;28;46530;-77
2021/08/27 00:07:25;;;;;;;;;5.00;5.00;;;;;17.44;59.20;101728.59;4923894;28;45282;-79
2021/08/27 00:09:51;;;;;;;;;5.25;5.25;;;;;17.44;60.04;101717.97;4924066;28;45592;-81
2021/08/27 00:12:18;;;;;;;;;7.00;5.75;;;;;17.43;59.72;101716.28;4923972;28;45239;-80
2021/08/27 00:14:43;;;;;;;;;8.00;6.25;;;;;17.42;59.94;101722.50;4923986;28;45311;-79
2021/08/27 00:17:09;;;;;;;;;6.75;4.25;;;;;17.38;60.03;101716.50;4924036;28;45405;-79
2021/08/27 00:19:34;;;;;;;;;5.00;3.50;;;;;17.34;60.59;101714.03;4924143;28;45817;-79
2021/08/27 00:21:59;;;;;;;;;5.75;4.50;;;;;17.31;59.99;101707.91;4924004;28;45476;-83
2021/08/27 00:24:25;;;;;;;;;5.00;5.00;;;;;17.32;60.62;101720.28;4923667;28;45347;-82
2021/08/27 00:26:50;;;;;;;;;7.00;6.25;;;;;17.30;60.45;101708.00;4923623;28;45327;-82
2021/08/27 00:29:15;;;;;;;;;6.25;5.50;;;;;17.30;60.38;101705.34;4906713;28;45342;-82
2021/08/27 00:31:41;;;;;;;;;9.75;8.00;;;;;17.28;60.66;101708.09;4923058;28;45502;-82
2021/08/27 00:34:06;;;;;;;;;7.25;6.25;;;;;17.26;60.57;101709.91;4899903;29;47206;-81
2021/08/27 00:36:31;;;;;;;;;8.25;5.00;;;;;17.25;60.57;101710.88;4917600;28;45325;-81
2021/08/27 00:38:57;;;;;;;;;9.75;6.00;;;;;17.24;60.80;101702.94;4923540;28;45433;-82
2021/08/27 00:41:22;;;;;;;;;9.25;5.75;;;;;17.19;61.45;101701.38;4922894;28;45745;-82
2021/08/27 00:43:47;;;;;;;;;10.50;7.25;;;;;17.18;61.21;101710.31;4923027;28;45335;-80
2021/08/27 00:46:13;;;;;;;;;7.25;7.25;;;;;17.20;61.40;101704.91;4923834;28;46040;-78
2021/08/27 00:48:38;;;;;;;;;9.50;7.75;;;;;17.22;60.83;101703.03;4923882;28;45144;-78
2021/08/27 00:51:04;;;;;;;;;10.00;6.50;;;;;17.23;61.48;101706.56;4894371;28;47052;-78
2021/08/27 00:53:31;;;;;;;;;7.00;6.25;;;;;17.21;61.30;101714.63;4902022;28;48421;-78
2021/08/27 00:55:57;;;;;;;;;5.50;5.25;;;;;17.18;61.52;101707.66;4923702;28;45227;-78
2021/08/27 00:58:23;;;;;;;;;9.00;5.75;;;;;17.19;61.15;101700.50;4923324;28;45312;-78
2021/08/27 01:00:48;;;;;;;;;4.75;4.75;;;;;17.17;61.81;101699.72;4922985;28;45392;-79
2021/08/27 01:03:15;;;;;;;;;11.00;6.25;;;;;17.15;62.27;101701.56;4922865;28;45349;-79
2021/08/27 01:05:50;;;;;;;;;11.00;6.50;;;;;17.09;61.88;101703.56;4923407;28;45433;-79
2021/08/27 01:08:34;;;;;;;;;10.00;5.75;;;;;17.08;62.14;101701.84;4923027;28;45481;-79
2021/08/27 01:11:07;;;;;;;;;8.50;6.25;;;;;17.07;62.08;101705.44;4919484;28;45328;-79
2021/08/27 01:13:36;;;;;;;;;8.50;5.75;;;;;17.10;61.68;101702.63;4916607;28;46369;-79
2021/08/27 01:16:15;;;;;;;;;7.50;4.50;;;;;17.09;62.11;101687.63;4922951;28;45364;-81
2021/08/27 01:19:18;;;;;;;;;9.25;9.25;;;;;17.15;61.93;101697.16;4905588;28;45278;-83
2021/08/27 01:22:07;;;;;;;;;9.25;7.00;;;;;17.14;61.79;101699.81;4922869;28;45564;-82
2021/08/27 01:24:35;;;;;;;;;6.50;3.75;;;;;17.09;61.72;101684.97;4905202;28;47603;-81
2021/08/27 01:27:04;;;;;;;;;11.50;6.75;;;;;17.08;61.98;101691.22;4922942;28;45421;-81
2021/08/27 01:30:01;;;;;;;;;8.75;8.25;;;;;17.05;62.12;101685.19;4923028;28;45236;-83
2021/08/27 01:32:51;;;;;;;;;8.00;5.75;;;;;17.03;62.17;101687.06;4922090;28;45342;-78
2021/08/27 01:35:16;;;;;;;;;10.50;8.25;;;;;16.99;62.67;101697.81;4922845;28;45437;-80
2021/08/27 01:37:50;;;;;;;;;10.75;6.75;;;;;16.95;62.61;101696.22;4923071;28;45335;-79
2021/08/27 01:40:23;;;;;;;;;13.25;7.50;;;;;16.91;62.55;101699.97;4922668;28;45305;-80
2021/08/27 01:42:50;;;;;;;;;9.00;6.75;;;;;16.89;62.59;101691.19;4922517;28;45520;-83
2021/08/27 01:45:17;;;;;;;;;11.75;7.50;;;;;16.85;63.08;101694.91;4922707;28;46518;-82
2021/08/27 01:47:44;;;;;;;;;8.25;6.75;;;;;16.83;63.11;101697.66;4922673;28;45306;-81
2021/08/27 01:50:11;;;;;;;;;9.25;7.50;;;;;16.82;63.42;101695.03;4925437;28;45377;-87
2021/08/27 01:52:39;;;;;;;;;8.25;7.75;;;;;16.76;62.84;101690.88;4922279;28;45425;-83
2021/08/27 01:55:05;;;;;;;;;9.75;8.00;;;;;16.75;63.41;101695.31;4921849;28;46322;-87
2021/08/27 01:57:32;;;;;;;;;9.25;5.75;;;;;16.72;63.27;101705.19;4922197;28;45274;-83
2021/08/27 01:59:58;;;;;;;;;14.50;9.25;;;;;16.69;63.26;101705.34;4904742;28;45448;-83
2021/08/27 02:02:24;;;;;;;;;6.00;6.00;;;;;16.65;63.78;101704.59;4922360;28;45293;-81
2021/08/27 02:04:54;;;;;;;;;6.00;6.00;;;;;16.61;63.57;101697.72;4921952;28;46740;-81
2021/08/27 02:07:20;;;;;;;;;6.50;6.00;;;;;16.58;63.92;101704.03;4922414;28;45280;-81
2021/08/27 02:09:48;;;;;;;;;10.50;8.00;;;;;16.56;63.86;101700.56;4892499;28;45373;-81
2021/08/27 02:12:15;;;;;;;;;8.75;5.75;;;;;16.53;63.88;101711.31;4922286;28;45521;-81
2021/08/27 02:14:41;;;;;;;;;12.25;6.50;;;;;16.49;64.40;101707.06;4904535;28;47073;-81
2021/08/27 02:17:08;;;;;;;;;8.50;7.00;;;;;16.48;64.16;101711.50;4922374;28;45156;-79
2021/08/27 02:19:36;;;;;;;;;10.50;9.25;;;;;16.46;64.45;101704.53;4922294;28;45343;-79
2021/08/27 02:22:03;;;;;;;;;11.25;9.50;;;;;16.41;64.90;101702.09;4921880;28;45381;-79
2021/08/27 02:24:35;;;;;;;;;7.50;6.50;;;;;16.39;64.92;101710.13;4921184;28;45372;-79
2021/08/27 02:27:03;;;;;;;;;10.25;8.25;;;;;16.37;64.75;101709.31;4922115;28;45267;-79
2021/08/27 02:29:33;;;;;;;;;13.00;8.50;;;;;16.39;64.61;101709.25;4921838;28;45300;-80
2021/08/27 02:32:02;;;;;;;;;6.75;6.25;;;;;16.42;64.58;101711.78;4921609;28;45519;-80
2021/08/27 02:34:30;;;;;;;;;8.75;7.00;;;;;16.42;64.72;101707.31;4904654;28;47507;-79
2021/08/27 02:36:58;;;;;;;;;11.25;7.75;;;;;16.46;64.36;101704.53;4922048;28;45684;-80
2021/08/27 02:39:26;;;;;;;;;7.25;7.25;;;;;16.43;64.89;101702.88;4921587;28;45538;-80
2021/08/27 02:41:53;;;;;;;;;8.25;8.25;;;;;16.45;64.60;101710.75;4921395;28;45364;-81
2021/08/27 02:44:18;;;;;;;;;3.00;1.25;;;;;16.49;64.55;101709.72;4921899;28;46419;-83
2021/08/27 02:46:44;;;;;;;;;9.50;8.25;;;;;16.48;64.83;101702.69;4921884;28;45252;-83
2021/08/27 02:49:09;;;;;;;;;10.50;8.00;;;;;16.51;64.61;101707.88;4922087;28;45478;-83
2021/08/27 02:52:02;;;;;;;;;6.50;5.75;;;;;16.48;64.55;101705.34;4921495;28;45623;-83
2021/08/27 02:54:34;;;;;;;;;10.25;8.50;;;;;16.48;64.76;101708.00;4921442;28;45424;-82
2021/08/27 02:57:03;;;;;;;;;8.50;5.75;;;;;16.47;64.95;101711.59;4921423;28;45332;-84
2021/08/27 02:59:30;;;;;;;;;5.50;5.50;;;;;16.47;64.67;101707.13;4921860;28;45399;-83
2021/08/27 03:01:58;;;;;;;;;6.50;6.25;;;;;16.50;64.99;101703.47;4920998;28;45469;-82
2021/08/27 03:04:42;;;;;;;;;8.50;7.00;;;;;16.55;65.13;101709.44;4921613;28;45453;-82
2021/08/27 03:07:13;;;;;;;;;6.25;6.25;;;;;16.51;64.73;101707.88;4924944;28;45382;-82
2021/08/27 03:10:08;;;;;;;;;11.50;8.50;;;;;16.53;64.82;101709.53;4924296;28;45275;-82
2021/08/27 03:12:53;;;;;;;;;8.75;8.75;;;;;16.59;65.04;101708.41;4923602;28;45603;-82
2021/08/27 03:15:40;;;;;;;;;8.25;6.00;;;;;16.58;64.83;101693.41;4924957;28;46520;-82
2021/08/27 03:18:33;;;;;;;;;11.00;8.75;;;;;16.58;65.07;101693.41;4924839;28;45256;-84
2021/08/27 03:21:11;;;;;;;;;10.50;8.00;;;;;16.56;65.02;101697.91;4924305;28;45227;-82
2021/08/27 03:23:39;;;;;;;;;7.50;6.25;;;;;16.58;64.99;101693.41;4924547;28;45398;-81
2021/08/27 03:26:07;;;;;;;;;9.00;7.75;;;;;16.59;64.98;101689.84;4924741;28;46199;-81
2021/08/27 03:28:39;;;;;;;;;9.50;6.25;;;;;16.63;64.97;101696.72;4924487;28;45223;-82
2021/08/27 03:31:06;;;;;;;;;10.25;7.00;;;;;16.64;65.21;101698.44;4912487;28;45318;-83
2021/08/27 03:33:33;;;;;;;;;10.50;5.00;;;;;16.62;64.96;101694.97;4924503;28;45451;-81
2021/08/27 03:36:01;;;;;;;;;9.00;8.00;;;;;16.62;65.07;101694.97;4906660;28;46146;-81
2021/08/27 03:38:28;;;;;;;;;15.25;8.75;;;;;16.63;65.18;101702.03;4924499;28;45181;-78
2021/08/27 03:40:54;;;;;;;;;9.50;7.00;;;;;16.63;65.18;101690.53;4906495;28;45482;-78
2021/08/27 03:43:22;;;;;;;;;8.50;8.50;;;;;16.62;65.29;101692.34;4923974;28;45467;-88
2021/08/27 03:45:49;;;;;;;;;10.00;7.75;;;;;16.64;65.42;101697.59;4907274;28;47428;-88
2021/08/27 03:48:16;;;;;;;;;14.25;9.00;;;;;16.58;65.56;101696.06;4924125;28;45299;-83
2021/08/27 03:50:41;;;;;;;;;9.50;8.25;;;;;16.54;65.65;101697.13;4924336;28;45245;-83
2021/08/27 03:53:09;;;;;;;;;7.00;6.50;;;;;16.54;65.35;101692.66;4924151;28;45180;-82
2021/08/27 03:55:35;;;;;;;;;12.00;10.00;;;;;16.55;65.68;101685.56;4923147;28;47982;-83
2021/08/27 03:58:02;;;;;;;;;10.25;8.50;;;;;16.56;65.73;101689.97;4906854;28;45415;-86
2021/08/27 04:00:28;;;;;;;;;8.25;7.25;;;;;16.58;65.77;101688.09;4924383;28;45247;-87
2021/08/27 04:02:56;;;;;;;;;7.00;6.00;;;;;16.57;65.72;101686.34;4924228;28;45274;-84
2021/08/27 04:05:22;;;;;;;;;11.50;8.00;;;;;16.59;65.84;101683.66;4924276;28;45437;-87
2021/08/27 04:07:49;;;;;;;;;7.50;7.00;;;;;16.61;65.36;101692.41;4924228;28;45298;-86
2021/08/27 04:10:20;;;;;;;;;12.75;9.75;;;;;16.60;65.56;101686.22;4924074;28;45390;-89
2021/08/27 04:12:46;;;;;;;;;6.50;6.25;;;;;16.60;65.49;101682.72;4906588;28;45299;-84
2021/08/27 04:15:13;;;;;;;;;10.75;7.25;;;;;16.59;65.67;101686.31;4906582;28;48196;-86
2021/08/27 04:17:39;;;;;;;;;9.00;7.75;;;;;16.57;65.75;101682.88;4923776;28;45303;-87
2021/08/27 04:20:07;;;;;;;;;6.75;6.00;;;;;16.54;65.78;101687.34;4923807;28;45447;-84
2021/08/27 04:22:32;;;;;;;;;8.00;6.50;;;;;16.53;66.00;101680.34;4924042;28;45256;-83
2021/08/27 04:24:58;;;;;;;;;9.75;7.25;;;;;16.57;65.83;101674.91;4906198;28;47386;-77
2021/08/27 04:27:24;;;;;;;;;9.50;8.75;;;;;16.58;65.82;101681.91;4923773;28;45245;-77
2021/08/27 04:29:50;;;;;;;;;12.00;8.50;;;;;16.52;66.49;101683.91;4923768;28;45487;-79
2021/08/27 04:32:16;;;;;;;;;11.50;10.00;;;;;16.47;66.21;101685.06;4923319;28;45560;-81
2021/08/27 04:34:41;;;;;;;;;11.50;9.00;;;;;16.41;66.43;101681.72;4923826;28;45257;-81
2021/08/27 04:37:07;;;;;;;;;10.25;9.00;;;;;16.42;66.56;101687.91;4923675;28;45264;-82
2021/08/27 04:39:32;;;;;;;;;9.00;7.50;;;;;16.47;66.34;101690.38;4923626;28;45381;-81
2021/08/27 04:41:58;;;;;;;;;7.25;7.25;;;;;16.49;66.45;101702.63;4923106;28;45382;-81
2021/08/27 04:44:24;;;;;;;;;13.50;9.50;;;;;16.48;66.26;101692.94;4923611;28;45630;-86
2021/08/27 04:46:49;;;;;;;;;9.75;7.75;;;;;16.50;66.60;101700.81;4906099;28;45402;-81
2021/08/27 04:49:15;;;;;;;;;11.00;9.75;;;;;16.51;66.46;101690.16;4922518;28;45469;-81
2021/08/27 04:51:40;;;;;;;;;15.25;9.00;;;;;16.52;66.38;101693.66;4924531;28;45330;-83
2021/08/27 04:54:06;;;;;;;;;11.25;9.75;;;;;16.56;66.69;101705.88;4922727;28;46033;-80
2021/08/27 04:56:31;;;;;;;;;10.75;6.75;;;;;16.52;66.33;101694.53;4923491;28;45467;-76
2021/08/27 04:58:56;;;;;;;;;12.00;7.00;;;;;16.54;66.95;101711.22;4923227;28;45323;-77
2021/08/27 05:01:22;;;;;;;;;13.00;8.00;;;;;16.55;66.99;101704.13;4922905;28;45374;-77
2021/08/27 05:03:47;;;;;;;;;10.75;6.75;;;;;16.55;66.81;101709.44;4906034;28;47033;-77
2021/08/27 05:06:12;;;;;;;;;11.25;9.25;;;;;16.53;66.88;101716.63;4906225;28;45347;-76
2021/08/27 05:08:38;;;;;;;;;11.50;9.50;;;;;16.48;67.64;101708.00;4922700;28;45469;-74
2021/08/27 05:11:04;;;;;;;;;10.75;8.75;;;;;16.48;67.09;101719.47;4919498;28;45374;-78
2021/08/27 05:13:29;;;;;;;;;10.50;9.00;;;;;16.47;67.17;101720.38;4922907;28;45416;-78
2021/08/27 05:15:55;;;;;;;;;10.75;7.50;;;;;16.50;67.25;101725.56;4921981;28;45295;-78
2021/08/27 05:18:21;;;;;;;;;8.75;7.50;;;;;16.52;66.95;101720.19;4923291;28;45410;-81
2021/08/27 05:20:46;;;;;;;;;8.75;7.50;;;;;16.55;66.96;101725.38;4923124;28;45693;-80
2021/08/27 05:23:12;;;;;;;;;12.00;9.00;;;;;16.52;67.26;101725.50;4922744;28;46072;-80
2021/08/27 05:25:37;;;;;;;;;7.50;7.00;;;;;16.49;67.03;101728.31;4923157;28;45261;-79
2021/08/27 05:28:03;;;;;;;;;13.25;10.50;;;;;16.49;67.31;101731.81;4922131;28;45679;-76
2021/08/27 05:30:28;;;;;;;;;13.50;9.75;;;;;16.47;67.01;101732.81;4922257;28;45378;-76
2021/08/27 05:32:54;;;;;;;;;11.00;7.75;;;;;16.46;67.13;101733.72;4922740;28;45343;-76
2021/08/27 05:35:20;;;;;;;;;14.75;12.25;;;;;16.47;67.53;101740.78;4922708;28;45598;-76
2021/08/27 05:37:46;;;;;;;;;11.25;8.75;;;;;16.48;67.57;101739.84;4922869;28;45283;-76
2021/08/27 05:40:11;;;;;;;;;14.00;12.00;;;;;16.48;67.37;101740.69;4922755;28;45557;-75
2021/08/27 05:42:38;;;;;;;;;16.75;10.50;;;;;16.52;67.49;101739.63;4921680;28;45509;-76
2021/08/27 05:45:05;;;;;;;;;17.75;13.25;;;;;16.57;67.17;101743.91;4922633;28;46569;-76
2021/08/27 05:47:30;;;;;;;;;10.75;10.25;;;;;16.60;67.13;101744.63;4905355;28;45755;-76
2021/08/27 05:49:57;;;;;;;;;12.00;11.75;;;;;16.63;67.31;101738.31;4905837;28;46923;-76
2021/08/27 05:52:23;;;;;;;;;16.25;11.00;;;;;16.64;67.03;101740.91;4905412;28;47129;-76
2021/08/27 05:54:48;;;;;;;;;16.50;10.25;;;;;16.65;67.28;101753.25;4922492;28;45959;-76
2021/08/27 05:57:13;;;;;;;;;11.75;9.50;;;;;16.70;67.39;101754.84;4922569;28;45361;-76
2021/08/27 05:59:39;;;;;;;;;12.00;12.00;;;;;16.71;67.22;101751.28;4923276;28;45473;-77
2021/08/27 06:02:04;;;;;;;;;13.50;11.00;;;;;16.69;67.39;101758.44;4904930;28;48067;-79
2021/08/27 06:04:30;;;;;;;;;14.50;13.50;;;;;16.67;67.47;101760.31;4913197;28;45401;-76
2021/08/27 06:06:56;;;;;;;;;15.75;9.50;;;;;16.64;67.63;101759.47;4922515;28;45322;-77
2021/08/27 06:09:22;;;;;;;;;16.00;11.25;;;;;16.65;67.99;101761.22;4904997;28;46611;-78
2021/08/27 06:11:47;;;;;;;;;17.75;15.00;;;;;16.68;67.76;101764.66;4922256;28;45323;-77
2021/08/27 06:14:13;;;;;;;;;13.25;11.00;;;;;16.67;67.84;101762.94;4919453;28;45408;-76
2021/08/27 06:16:38;;;;;;;;;17.50;13.00;;;;;16.70;68.36;101770.75;4917701;28;45898;-76
2021/08/27 06:19:04;;;;;;;;;13.25;11.25;;;;;16.68;68.14;101762.00;4916466;28;46096;-76
2021/08/27 06:21:35;;;;;;;;;17.25;10.25;;;;;16.71;68.20;101772.50;4913437;28;45545;-76
2021/08/27 06:24:01;;;;;;;;;11.75;10.50;;;;;16.74;68.23;101769.72;4910136;28;45365;-77
2021/08/27 06:26:27;;;;;;;;;14.50;12.50;;;;;16.75;67.99;101768.78;4897331;28;45332;-77
2021/08/27 06:28:52;;;;;;;;;13.25;11.50;;;;;16.76;67.74;101768.72;4897491;28;46183;-76
2021/08/27 06:31:18;;;;;;;;;15.25;12.25;;;;;16.82;68.01;101769.38;4913867;28;45703;-76
2021/08/27 06:33:43;;;;;;;;;13.50;12.00;;;;;16.94;68.01;101778.63;4921295;28;45389;-79
2021/08/27 06:36:09;;;;;;;;;11.00;11.00;;;;;16.98;67.47;101775.75;4918885;28;45200;-76
2021/08/27 06:38:34;;;;;;;;;13.00;11.50;;;;;17.05;67.54;101786.09;4919895;28;45395;-76
2021/08/27 06:41:04;;;;;;;;;19.25;14.00;;;;;17.09;67.50;101788.56;4922773;28;45348;-76
2021/08/27 06:43:32;;;;;;;;;10.00;10.00;;;;;17.14;67.14;101785.69;4924245;28;45885;-76
2021/08/27 06:46:01;;;;;;;;;12.75;11.50;;;;;17.18;66.96;101789.13;4904602;28;45350;-76
2021/08/27 06:48:27;;;;;;;;;15.25;12.50;;;;;17.23;66.72;101792.44;4922966;28;45442;-76
2021/08/27 06:50:53;;;;;;;;;17.50;15.00;;;;;17.23;66.91;101795.09;4922000;28;45699;-76
2021/08/27 06:53:18;;;;;;;;;19.75;13.00;;;;;17.21;66.82;101796.97;4922249;28;45511;-76
2021/08/27 06:55:44;;;;;;;;;12.75;12.25;;;;;17.17;67.15;101796.22;4920110;28;45460;-76
2021/08/27 06:58:09;;;;;;;;;13.25;12.00;;;;;17.15;66.97;101795.44;4922630;28;45853;-76
2021/08/27 07:00:35;;;;;;;;;10.75;9.00;;;;;17.17;66.79;101796.22;4921849;28;45459;-76
2021/08/27 07:03:00;;;;;;;;;19.25;12.25;;;;;17.24;66.63;101796.81;4914760;28;45979;-76
2021/08/27 07:05:27;;;;;;;;;14.50;14.50;;;;;17.32;66.90;101802.66;4915001;28;45427;-76
2021/08/27 07:07:52;;;;;;;;;18.50;14.75;;;;;17.38;66.96;101798.00;4914900;28;45538;-76
2021/08/27 07:10:18;;;;;;;;;14.50;12.75;;;;;17.37;66.92;101805.09;4915085;28;45552;-76
2021/08/27 07:12:43;;;;;;;;;17.00;14.50;;;;;17.40;66.63;101806.75;4915153;28;46003;-76
2021/08/27 07:15:09;;;;;;;;;15.50;13.75;;;;;17.44;66.54;101811.00;4921773;28;45223;-76
2021/08/27 07:17:35;;;;;;;;;14.75;13.50;;;;;17.48;66.18;101804.59;4922002;28;45476;-75
2021/08/27 07:20:00;;;;;;;;;15.25;12.00;;;;;17.50;66.40;101808.06;4923382;28;46519;-76
2021/08/27 07:22:26;;;;;;;;;20.75;14.00;;;;;17.50;66.32;101807.19;4906227;28;45715;-76
2021/08/27 07:24:52;;;;;;;;;14.00;12.25;;;;;17.51;65.82;101809.78;4926087;28;45358;-76
2021/08/27 07:27:17;;;;;;;;;12.50;10.00;;;;;17.50;66.31;101810.72;4923420;28;45361;-76
2021/08/27 07:29:42;;;;;;;;;13.75;12.00;;;;;17.58;65.60;101822.81;4924522;28;45264;-76
2021/08/27 07:32:11;;;;;;;;;18.50;13.25;;;;;17.67;65.85;101819.72;4906436;28;45331;-76
2021/08/27 07:34:38;;;;;;;;;13.50;12.50;;;;;17.69;65.32;101819.63;4923854;28;45415;-76
2021/08/27 07:37:04;;;;;;;;;20.50;13.25;;;;;17.73;65.01;101827.41;4919267;28;45959;-76
2021/08/27 07:39:29;;;;;;;;;16.50;14.25;;;;;17.79;65.25;101830.72;4921663;28;45358;-76
2021/08/27 07:41:54;;;;;;;;;12.00;10.25;;;;;17.84;65.34;101834.03;4924078;28;45208;-76
2021/08/27 07:44:20;;;;;;;;;12.00;9.50;;;;;17.91;64.87;101830.13;4906310;28;45609;-76
2021/08/27 07:46:45;;;;;;;;;11.00;10.50;;;;;18.01;64.66;101833.22;4923931;28;45468;-76
2021/08/27 07:49:10;;;;;;;;;10.75;10.25;;;;;18.10;64.25;101823.94;4924161;28;46564;-76
2021/08/27 07:51:36;;;;;;;;;11.75;11.25;;;;;18.26;64.32;101828.56;4903532;28;45478;-76
2021/08/27 07:54:01;;;;;;;;;14.25;13.75;;;;;18.41;63.64;101824.28;4923700;28;45232;-76
2021/08/27 07:56:26;;;;;;;;;15.25;11.50;;;;;18.48;63.31;101825.72;4923081;28;45349;-76
2021/08/27 07:58:52;;;;;;;;;11.75;9.25;;;;;18.55;63.22;101826.25;4915366;28;46474;-76
2021/08/27 08:01:17;;;;;;;;;16.00;10.75;;;;;18.60;62.85;101840.22;4914175;28;45661;-76
2021/08/27 08:03:42;;;;;;;;;13.50;10.50;;;;;18.68;62.57;101837.16;4917593;28;45489;-76
2021/08/27 08:06:08;;;;;;;;;13.00;11.00;;;;;18.75;62.19;101833.25;4906017;28;46152;-76
2021/08/27 08:08:33;;;;;;;;;11.50;7.50;;;;;18.73;61.73;101827.16;4906283;28;47607;-76
2021/08/27 08:10:59;;;;;;;;;9.75;9.75;;;;;18.74;61.72;101836.00;4922222;28;45283;-77
2021/08/27 08:13:24;;;;;;;;;12.25;10.50;;;;;18.75;62.08;101832.38;4922393;28;45469;-79
2021/08/27 08:15:50;;;;;;;;;9.25;8.00;;;;;18.75;61.88;101833.25;4921179;28;45361;-76
2021/08/27 08:18:15;;;;;;;;;11.25;9.50;;;;;18.74;61.42;101830.69;4922022;28;45380;-79
2021/08/27 08:20:41;;;;;;;;;9.50;8.50;;;;;18.72;60.91;101838.72;4922145;28;45543;-77
2021/08/27 08:23:06;;;;;;;;;8.50;7.50;;;;;18.69;61.26;101838.03;4923600;28;45382;-77
2021/08/27 08:25:31;;;;;;;;;9.75;9.50;;;;;18.67;60.83;101838.09;4917914;28;45397;-80
2021/08/27 08:27:57;;;;;;;;;10.25;7.25;;;;;18.62;60.53;101838.31;4919073;28;45433;-78
2021/08/27 08:30:22;;;;;;;;;6.50;6.50;;;;;18.61;60.95;101841.94;4915839;28;45479;-82
2021/08/27 08:32:48;;;;;;;;;9.50;7.50;;;;;18.63;60.63;101844.53;4913655;28;46020;-83
2021/08/27 08:35:13;;;;;;;;;10.75;6.50;;;;;18.64;60.01;101852.44;4898959;28;46909;-84
2021/08/27 08:37:40;;;;;;;;;7.50;5.00;;;;;18.66;59.19;101842.59;4899685;28;47261;-84
2021/08/27 08:40:07;;;;;;;;;9.25;6.25;;;;;18.65;58.77;101843.50;4915080;28;45523;-82
2021/08/27 08:42:33;;;;;;;;;7.00;6.00;;;;;18.68;59.47;101850.47;4913437;28;46741;-84
2021/08/27 08:44:58;;;;;;;;;8.00;5.75;;;;;18.70;58.99;101850.41;4899351;28;47569;-83
2021/08/27 08:47:26;;;;;;;;;5.00;4.75;;;;;18.70;58.64;101842.41;4912967;28;45852;-83
2021/08/27 08:49:52;;;;;;;;;4.25;4.25;;;;;18.71;58.85;101844.16;4913573;28;45458;-77
2021/08/27 08:52:21;;;;;;;;;10.75;5.75;;;;;18.75;58.38;101846.56;4922084;28;45263;-76
2021/08/27 08:54:50;;;;;;;;;4.50;4.50;;;;;18.78;57.51;101853.56;4921151;28;45469;-75
2021/08/27 08:57:19;;;;;;;;;8.00;6.50;;;;;18.80;57.69;101851.66;4921192;28;45527;-76
2021/08/27 08:59:44;;;;;;;;;6.00;4.00;;;;;18.81;57.17;101853.41;4922251;28;45413;-76
2021/08/27 09:02:10;;;;;;;;;2.25;2.25;;;;;18.75;57.29;101854.56;4906157;28;45309;-76
2021/08/27 09:04:35;;;;;;;;;4.25;4.25;;;;;18.73;56.15;101855.56;4921363;28;45506;-76
2021/08/27 09:07:00;;;;;;;;;3.25;3.25;;;;;18.70;56.40;101853.06;4923040;28;46431;-76
2021/08/27 09:09:30;;;;;;;;;3.00;3.00;;;;;18.66;56.43;101861.22;4922129;28;45280;-76
2021/08/27 09:11:57;;;;;;;;;5.25;2.25;;;;;18.70;56.99;101858.38;4895275;28;45310;-76
2021/08/27 09:14:28;;;;;;;;;5.50;5.00;;;;;18.75;56.77;101867.00;4922149;28;45648;-76
2021/08/27 09:17:02;;;;;;;;;5.75;5.00;;;;;18.81;56.39;101865.84;4922161;28;45324;-75
2021/08/27 09:19:51;;;;;;;;;6.25;6.00;;;;;18.86;56.31;101864.69;4912221;28;45581;-76
2021/08/27 09:22:17;;;;;;;;;5.50;3.75;;;;;18.88;56.31;101865.47;4916434;28;45539;-76
2021/08/27 09:24:43;;;;;;;;;4.75;3.00;;;;;18.92;56.82;101857.28;4917549;28;45553;-76
2021/08/27 09:27:09;;;;;;;;;5.50;5.00;;;;;18.98;56.26;101862.34;4901538;28;47515;-76
2021/08/27 09:29:42;;;;;;;;;4.25;4.00;;;;;19.03;54.70;101860.28;4922820;28;45551;-76
2021/08/27 09:32:27;;;;;;;;;7.00;5.00;;;;;19.04;56.19;101861.16;4922541;28;45422;-76
2021/08/27 09:35:09;;;;;;;;;10.00;6.25;;;;;19.07;56.73;101860.97;4919577;28;45561;-76
2021/08/27 09:37:55;;;;;;;;;7.50;7.25;;;;;19.12;56.32;101861.63;4922346;28;45360;-76
2021/08/27 09:40:26;;;;;;;;;5.25;4.50;;;;;19.19;55.34;101859.50;4909903;28;45850;-76
2021/08/27 09:42:53;;;;;;;;;4.00;4.00;;;;;19.23;54.74;101861.09;4895323;28;46121;-76
2021/08/27 09:45:31;;;;;;;;;7.25;4.00;;;;;19.26;54.93;101863.59;4915880;28;45892;-76
2021/08/27 09:48:02;;;;;;;;;6.75;5.50;;;;;19.30;54.71;101865.16;4895116;28;48257;-76
2021/08/27 09:50:30;;;;;;;;;5.50;4.75;;;;;19.31;53.72;101872.19;4912692;28;45513;-76
2021/08/27 09:53:05;;;;;;;;;3.25;3.25;;;;;19.32;52.89;101857.94;4911399;28;45496;-76
2021/08/27 09:55:33;;;;;;;;;3.00;3.00;;;;;19.37;53.32;101859.50;4920492;28;45569;-76
2021/08/27 09:58:06;;;;;;;;;1.25;1.25;;;;;19.46;53.63;101864.34;4920713;28;45427;-77
2021/08/27 10:00:37;;;;;;;;;2.50;2.50;;;;;19.58;52.99;101862.84;4904951;28;45551;-77
2021/08/27 10:03:25;;;;;;;;;2.00;2.00;;;;;19.70;52.34;101860.44;4921989;28;45243;-77
2021/08/27 10:05:54;;;;;;;;;4.00;2.25;;;;;19.79;51.18;101857.28;4918265;28;45410;-77
2021/08/27 10:08:29;;;;;;;;;2.75;2.00;;;;;19.88;50.89;101855.91;4922200;28;45353;-77
2021/08/27 10:10:57;;;;;;;;;3.25;1.75;;;;;19.92;50.39;101852.13;4921296;28;45576;-76
2021/08/27 10:13:25;;;;;;;;;2.00;1.50;;;;;19.96;49.77;101851.00;4914418;28;45187;-76
2021/08/27 10:15:53;;;;;;;;;2.00;2.00;;;;;19.94;49.81;101850.25;4897985;28;47391;-76
2021/08/27 10:18:19;;;;;;;;;2.75;2.00;;;;;19.94;49.80;101847.56;4921295;28;46197;-76
2021/08/27 10:20:46;;;;;;;;;2.00;1.75;;;;;19.98;50.71;101849.13;4903094;28;45284;-76
2021/08/27 10:23:15;;;;;;;;;2.50;2.50;;;;;20.03;51.41;101840.84;4912185;28;45201;-76
2021/08/27 10:25:41;;;;;;;;;2.50;2.00;;;;;20.09;50.54;101840.53;4918225;28;45469;-76
2021/08/27 10:28:08;;;;;;;;;3.00;1.75;;;;;20.12;49.07;101850.19;4918882;28;46371;-76
2021/08/27 10:30:54;;;;;;;;;0.75;0.75;;;;;20.15;49.73;101842.00;4920244;28;45505;-76
2021/08/27 10:33:39;;;;;;;;;3.00;1.00;;;;;20.17;50.39;101836.59;4922270;28;45324;-76
2021/08/27 10:36:06;;;;;;;;;2.25;2.25;;;;;20.21;50.25;101833.66;4921102;28;45204;-76
2021/08/27 10:38:46;;;;;;;;;1.50;1.25;;;;;20.26;50.75;101835.19;4920059;28;46617;-76
2021/08/27 10:41:17;;;;;;;;;1.50;1.00;;;;;20.32;49.20;101840.19;4919634;28;45287;-76
2021/08/27 10:43:53;;;;;;;;;2.25;1.75;;;;;20.37;49.16;101838.13;4922156;28;45694;-76
2021/08/27 10:46:19;;;;;;;;;2.00;1.00;;;;;20.45;47.54;101833.19;4919444;28;45486;-77
2021/08/27 10:48:52;;;;;;;;;3.75;1.50;;;;;20.48;47.10;101833.97;4903885;28;47389;-76
2021/08/27 10:51:38;;;;;;;;;1.25;1.00;;;;;20.44;47.70;101835.97;4906464;28;45843;-76
2021/08/27 10:54:05;;;;;;;;;2.00;2.00;;;;;20.40;47.74;101832.59;4919624;28;45562;-76
2021/08/27 10:56:39;;;;;;;;;0.75;0.75;;;;;20.41;48.20;101834.31;4921641;28;45371;-76
2021/08/27 10:59:09;;;;;;;;;2.00;0.25;;;;;20.43;47.61;101829.75;4921858;28;45500;-76
2021/08/27 11:01:37;;;;;;;;;1.25;1.00;;;;;20.42;47.63;101830.69;4918453;28;45491;-76
2021/08/27 11:04:25;;;;;;;;;1.00;1.00;;;;;20.41;47.63;101837.00;4921477;28;45240;-76
2021/08/27 11:06:56;;;;;;;;;1.00;1.00;;;;;20.37;46.68;101834.59;4921803;28;45454;-76
2021/08/27 11:09:26;;;;;;;;;0.25;0.00;;;;;20.41;47.74;101834.31;4918809;28;46269;-76
2021/08/27 11:12:21;;;;;;;;;1.00;1.00;;;;;20.43;46.81;101840.44;4904492;28;45494;-76
2021/08/27 11:14:52;;;;;;;;;2.25;1.00;;;;;20.42;47.50;101830.69;4902373;28;45406;-76
2021/08/27 11:17:17;;;;;;;;;1.50;1.50;;;;;20.42;45.73;101835.19;4901909;28;45261;-76
2021/08/27 11:19:56;;;;;;;;;2.25;1.00;;;;;20.45;46.26;101843.00;4921847;28;45248;-76
2021/08/27 11:22:28;;;;;;;;;0.00;0.00;;;;;20.48;46.98;101832.16;4918086;28;45315;-76
2021/08/27 11:25:08;;;;;;;;;1.75;1.00;;;;;20.54;46.99;101837.16;4919909;28;45247;-76